Time;durP1;ratioP1;P1;durP2;ratioP2;P2;SDS_P1;SDS_P2;PMS_P1;PMS_P2;Temp;Humidity;BMP_temperature;BMP_pressure;BME280_temperature;BME280_humidity;BME280_pressure;Samples;Min_cycle;Max_cycle;Signal;HPM_P1;HPM_P2
2023/01/08 00:01:42;;;;;;;6.97;3.10;;;9.30;99.90;;;;;;6299948;22;20490;-87
2023/01/08 00:04:07;;;;;;;6.93;2.90;;;9.20;99.90;;;;;;6325912;22;20069;-87
2023/01/08 00:06:33;;;;;;;4.75;2.55;;;8.40;99.90;;;;;;6326772;22;20033;-88
2023/01/08 00:09:00;;;;;;;4.60;2.67;;;9.20;99.90;;;;;;6298943;22;20019;-87
2023/01/08 00:11:44;;;;;;;7.85;2.90;;;9.20;99.90;;;;;;6275237;22;20018;-87
2023/01/08 00:14:10;;;;;;;4.63;2.67;;;9.20;99.90;;;;;;6273760;22;20346;-88
2023/01/08 00:16:36;;;;;;;5.43;2.80;;;9.20;99.90;;;;;;6325707;22;20015;-88
2023/01/08 00:19:02;;;;;;;5.05;2.70;;;9.30;99.90;;;;;;6274054;22;20015;-87
2023/01/08 00:21:31;;;;;;;4.20;2.40;;;9.30;99.90;;;;;;6274080;22;20035;-88
2023/01/08 00:23:57;;;;;;;4.85;2.97;;;9.20;99.90;;;;;;6273646;22;20030;-88
2023/01/08 00:26:23;;;;;;;4.20;2.60;;;9.20;99.90;;;;;;6326893;22;20015;-88
2023/01/08 00:28:49;;;;;;;4.20;2.60;;;9.20;99.90;;;;;;6271300;22;20027;-88
2023/01/08 00:31:15;;;;;;;8.55;2.65;;;9.50;99.90;;;;;;6274865;22;20015;-88
2023/01/08 00:33:41;;;;;;;6.88;2.60;;;9.30;99.90;;;;;;6274529;22;20374;-87
2023/01/08 00:36:09;;;;;;;4.82;2.60;;;9.30;99.90;;;;;;6273372;22;20019;-88
2023/01/08 00:38:35;;;;;;;7.22;2.60;;;9.30;99.90;;;;;;6274491;22;20123;-88
2023/01/08 00:41:01;;;;;;;6.45;2.60;;;9.30;99.90;;;;;;6273902;22;20048;-88
2023/01/08 00:43:27;;;;;;;6.05;2.55;;;9.30;99.90;;;;;;6324916;22;20453;-88
2023/01/08 00:45:53;;;;;;;4.80;2.60;;;9.30;99.90;;;;;;6325224;22;20018;-87
2023/01/08 00:48:21;;;;;;;6.63;2.85;;;9.30;99.90;;;;;;6300862;22;20011;-88
2023/01/08 00:50:48;;;;;;;5.15;2.50;;;9.30;99.90;;;;;;6273077;22;20061;-88
2023/01/08 00:53:14;;;;;;;9.25;3.05;;;9.30;99.90;;;;;;6274194;22;20053;-87
2023/01/08 00:55:39;;;;;;;5.63;2.80;;;9.30;99.90;;;;;;6274798;22;20015;-88
2023/01/08 00:58:05;;;;;;;4.63;2.47;;;9.30;99.90;;;;;;6271906;22;20065;-88
2023/01/08 01:00:31;;;;;;;6.97;2.38;;;9.40;99.90;;;;;;6274131;22;20339;-88
2023/01/08 01:02:57;;;;;;;5.88;2.53;;;9.20;99.90;;;;;;6274067;22;20026;-88
2023/01/08 01:05:23;;;;;;;6.95;3.28;;;9.20;99.90;;;;;;6273012;22;20029;-88
2023/01/08 01:07:51;;;;;;;4.05;2.30;;;9.20;99.90;;;;;;6274027;22;20053;-87
2023/01/08 01:10:17;;;;;;;6.07;2.40;;;9.10;99.90;;;;;;6273849;22;20018;-87
2023/01/08 01:12:43;;;;;;;5.10;2.53;;;9.10;99.90;;;;;;6298751;22;20359;-88
2023/01/08 01:15:12;;;;;;;5.20;2.58;;;9.10;99.90;;;;;;6273252;22;20026;-86
2023/01/08 01:17:38;;;;;;;6.13;2.15;;;9.10;99.90;;;;;;6273626;22;20019;-87
2023/01/08 01:20:06;;;;;;;5.57;2.13;;;9.10;99.90;;;;;;6273744;22;20094;-88
2023/01/08 01:22:32;;;;;;;6.50;2.25;;;9.20;99.90;;;;;;6326284;22;20027;-87
2023/01/08 01:24:58;;;;;;;4.05;2.00;;;9.20;99.90;;;;;;6324479;22;20011;-88
2023/01/08 01:27:25;;;;;;;5.18;2.20;;;9.20;99.90;;;;;;6298724;22;20019;-88
2023/01/08 01:29:51;;;;;;;6.70;2.10;;;9.50;99.90;;;;;;6273297;22;20023;-87
2023/01/08 01:32:17;;;;;;;6.50;2.45;;;9.10;99.90;;;;;;6272779;22;20061;-87
2023/01/08 01:34:42;;;;;;;3.72;2.05;;;9.20;99.90;;;;;;6325587;22;20016;-87
2023/01/08 01:37:12;;;;;;;4.00;1.92;;;9.10;99.90;;;;;;6273633;22;20025;-87
2023/01/08 01:39:38;;;;;;;5.63;2.47;;;9.20;99.90;;;;;;6298735;22;20011;-88
2023/01/08 01:42:05;;;;;;;7.30;2.30;;;9.10;99.90;;;;;;6324846;22;20339;-87
2023/01/08 01:44:37;;;;;;;4.30;2.10;;;9.10;99.90;;;;;;6298917;22;20033;-88
2023/01/08 01:47:14;;;;;;;5.35;2.38;;;9.20;99.90;;;;;;6272536;22;20019;-88
2023/01/08 01:49:47;;;;;;;6.22;1.70;;;9.10;99.90;;;;;;6273922;22;20020;-88
2023/01/08 01:52:12;;;;;;;4.63;2.10;;;9.20;99.90;;;;;;6325568;22;20477;-88
2023/01/08 01:54:38;;;;;;;6.47;2.67;;;9.20;99.90;;;;;;6324849;22;20027;-88
2023/01/08 01:57:07;;;;;;;5.22;1.98;;;9.10;99.90;;;;;;6272138;22;20022;-88
2023/01/08 01:59:33;;;;;;;6.22;2.40;;;9.10;99.90;;;;;;6299138;22;20019;-88
2023/01/08 02:01:59;;;;;;;6.80;2.65;;;9.00;99.90;;;;;;6323812;22;20023;-88
2023/01/08 02:04:26;;;;;;;6.63;2.40;;;9.00;99.90;;;;;;6274453;22;20096;-88
2023/01/08 02:07:10;;;;;;;6.57;2.28;;;9.00;99.90;;;;;;6272531;22;20019;-88
2023/01/08 02:09:47;;;;;;;7.20;2.30;;;9.00;99.90;;;;;;6325753;22;20072;-87
2023/01/08 02:12:23;;;;;;;6.32;2.40;;;8.90;99.90;;;;;;6273417;22;20120;-88
2023/01/08 02:15:03;;;;;;;6.57;2.08;;;9.00;99.90;;;;;;6297416;22;20018;-87
2023/01/08 02:17:30;;;;;;;8.43;2.50;;;8.90;99.90;;;;;;6299475;22;20023;-88
2023/01/08 02:20:02;;;;;;;8.10;2.20;;;8.90;99.90;;;;;;6272967;22;20473;-88
2023/01/08 02:22:47;;;;;;;5.20;1.77;;;8.90;99.90;;;;;;6298775;22;20023;-87
2023/01/08 02:25:30;;;;;;;14.48;2.35;;;8.90;99.90;;;;;;6299804;22;20300;-88
2023/01/08 02:27:59;;;;;;;9.15;2.47;;;8.80;99.90;;;;;;6272029;22;20090;-87
2023/01/08 02:30:25;;;;;;;5.03;1.90;;;8.70;99.90;;;;;;6272636;22;20431;-87
2023/01/08 02:32:51;;;;;;;7.78;1.83;;;8.70;99.90;;;;;;6298937;22;20025;-88
2023/01/08 02:35:17;;;;;;;9.85;1.90;;;8.70;99.90;;;;;;6271942;22;20406;-88
2023/01/08 02:37:43;;;;;;;8.93;1.58;;;8.80;99.90;;;;;;6325255;22;20378;-87
2023/01/08 02:40:25;;;;;;;8.20;2.03;;;8.60;99.90;;;;;;6325037;22;20101;-87
2023/01/08 02:43:09;;;;;;;6.70;1.98;;;8.70;99.90;;;;;;6322992;22;20114;-88
2023/01/08 02:45:45;;;;;;;12.88;2.13;;;8.60;99.90;;;;;;6272911;22;20019;-88
2023/01/08 02:48:15;;;;;;;12.32;2.05;;;8.50;99.90;;;;;;6325317;22;20362;-87
2023/01/08 02:50:54;;;;;;;10.20;1.90;;;8.50;99.90;;;;;;6297584;22;20019;-87
2023/01/08 02:53:24;;;;;;;8.43;1.83;;;8.50;99.90;;;;;;6324725;22;20019;-87
2023/01/08 02:55:54;;;;;;;9.43;1.83;;;8.50;99.90;;;;;;6272935;22;20026;-87
2023/01/08 02:58:22;;;;;;;19.33;2.00;;;8.40;99.90;;;;;;6271583;22;20391;-88
2023/01/08 03:00:49;;;;;;;14.20;2.40;;;8.40;99.90;;;;;;6272117;22;20086;-87
2023/01/08 03:03:24;;;;;;;15.98;2.50;;;8.50;99.90;;;;;;6271730;22;20030;-88
2023/01/08 03:06:01;;;;;;;10.55;1.98;;;8.40;99.90;;;;;;6298842;22;20081;-87
2023/01/08 03:08:27;;;;;;;14.85;2.88;;;8.30;99.90;;;;;;6273636;22;20011;-87
2023/01/08 03:11:04;;;;;;;15.25;2.22;;;8.30;99.90;;;;;;6323586;22;20011;-87
2023/01/08 03:13:44;;;;;;;13.57;2.35;;;8.20;99.90;;;;;;6298253;22;20030;-88
2023/01/08 03:16:28;;;;;;;16.75;3.00;;;8.20;99.90;;;;;;6325408;22;20057;-88
2023/01/08 03:19:04;;;;;;;20.20;2.78;;;8.20;99.90;;;;;;6297122;22;20508;-88
2023/01/08 03:21:31;;;;;;;12.75;2.17;;;8.10;99.90;;;;;;6273411;22;20061;-88
2023/01/08 03:23:56;;;;;;;18.30;2.60;;;8.70;99.90;;;;;;6272092;22;20098;-88
2023/01/08 03:26:25;;;;;;;9.70;2.65;;;8.00;99.90;;;;;;6324320;22;20058;-88
2023/01/08 03:28:53;;;;;;;10.88;2.17;;;8.00;99.90;;;;;;6297500;22;20036;-88
2023/01/08 03:31:23;;;;;;;17.63;2.30;;;8.00;99.90;;;;;;6272380;22;20018;-87
2023/01/08 03:33:50;;;;;;;7.75;1.55;;;7.90;99.90;;;;;;6272160;22;20019;-88
2023/01/08 03:36:22;;;;;;;15.88;2.13;;;7.90;99.90;;;;;;6273485;22;20050;-88
2023/01/08 03:38:57;;;;;;;9.63;1.90;;;7.90;99.90;;;;;;6270726;22;20431;-88
2023/01/08 03:41:26;;;;;;;21.83;3.50;;;7.90;99.90;;;;;;6325104;22;20022;-88
2023/01/08 03:43:52;;;;;;;16.48;2.30;;;7.90;99.90;;;;;;6270832;22;20322;-87
2023/01/08 03:46:25;;;;;;;16.42;2.15;;;7.90;99.90;;;;;;6324632;22;20015;-87
2023/01/08 03:48:51;;;;;;;10.30;2.05;;;7.80;99.90;;;;;;6324334;22;20374;-88
2023/01/08 03:51:17;;;;;;;14.15;2.03;;;7.80;99.90;;;;;;6273265;22;20026;-87
2023/01/08 03:53:43;;;;;;;9.60;2.60;;;7.80;99.90;;;;;;6271214;22;20017;-88
2023/01/08 03:56:09;;;;;;;9.93;1.58;;;7.80;99.90;;;;;;6325065;22;20027;-87
2023/01/08 03:58:35;;;;;;;12.27;1.83;;;7.90;99.90;;;;;;6271934;22;20058;-87
2023/01/08 04:01:00;;;;;;;11.57;2.20;;;7.90;99.90;;;;;;6271482;22;20019;-87
2023/01/08 04:03:26;;;;;;;12.90;2.65;;;7.90;99.90;;;;;;6326033;22;20026;-87
2023/01/08 04:05:52;;;;;;;13.20;2.13;;;7.80;99.90;;;;;;6299850;22;20015;-87
2023/01/08 04:08:17;;;;;;;9.32;1.90;;;7.80;99.90;;;;;;6326020;22;20512;-87
2023/01/08 04:10:43;;;;;;;10.90;1.75;;;7.80;99.90;;;;;;6326121;22;20038;-87
2023/01/08 04:13:09;;;;;;;12.18;2.10;;;7.70;99.90;;;;;;6325964;22;20019;-88
2023/01/08 04:15:34;;;;;;;17.58;2.13;;;8.10;99.90;;;;;;6273492;22;20113;-87
2023/01/08 04:18:00;;;;;;;15.60;2.08;;;7.70;99.90;;;;;;6325307;22;20447;-87
2023/01/08 04:20:26;;;;;;;12.57;1.95;;;7.70;99.90;;;;;;6274219;22;20269;-88
2023/01/08 04:22:51;;;;;;;9.35;1.60;;;7.60;99.90;;;;;;6274020;22;20575;-87
2023/01/08 04:25:18;;;;;;;11.30;2.45;;;7.60;99.90;;;;;;6325987;22;20019;-87
2023/01/08 04:27:43;;;;;;;11.65;2.08;;;8.10;99.90;;;;;;6298587;22;20089;-86
2023/01/08 04:30:10;;;;;;;12.95;2.45;;;7.50;99.90;;;;;;6325767;22;20406;-87
2023/01/08 04:32:35;;;;;;;11.55;2.47;;;7.50;99.90;;;;;;6326365;22;20015;-87
2023/01/08 04:35:01;;;;;;;11.05;1.90;;;7.50;99.90;;;;;;6273225;22;20062;-87
2023/01/08 04:37:27;;;;;;;11.77;2.38;;;7.70;99.90;;;;;;6300081;22;20019;-88
2023/01/08 04:39:52;;;;;;;14.18;2.47;;;7.50;99.90;;;;;;6248322;22;20523;-87
2023/01/08 04:42:18;;;;;;;12.73;2.22;;;7.40;99.90;;;;;;6324386;22;20019;-87
2023/01/08 04:44:44;;;;;;;14.23;2.40;;;7.40;99.90;;;;;;6248323;22;20331;-87
2023/01/08 04:47:09;;;;;;;9.13;2.33;;;7.90;99.90;;;;;;6300279;22;20084;-87
2023/01/08 04:49:35;;;;;;;9.98;2.65;;;7.90;99.90;;;;;;6247780;22;20023;-87
2023/01/08 04:52:00;;;;;;;13.15;2.70;;;7.50;99.90;;;;;;6299484;22;20092;-88
2023/01/08 04:54:26;;;;;;;9.75;2.75;;;7.80;99.90;;;;;;6325739;22;20124;-87
2023/01/08 04:56:52;;;;;;;8.02;2.70;;;7.60;99.90;;;;;;6297908;22;20018;-87
2023/01/08 04:59:18;;;;;;;9.07;2.90;;;7.60;99.90;;;;;;6299589;22;20019;-87
2023/01/08 05:01:43;;;;;;;6.90;2.40;;;7.60;99.90;;;;;;6299220;22;20450;-87
2023/01/08 05:04:10;;;;;;;6.70;2.65;;;7.60;99.90;;;;;;6247461;22;20015;-87
2023/01/08 05:06:35;;;;;;;10.10;3.20;;;7.70;99.90;;;;;;6248478;22;20015;-87
2023/01/08 05:09:02;;;;;;;8.70;3.03;;;7.60;99.90;;;;;;6247843;22;20026;-87
2023/01/08 05:11:27;;;;;;;9.98;3.25;;;7.70;99.90;;;;;;6247845;22;20378;-88
2023/01/08 05:13:53;;;;;;;12.30;3.00;;;7.70;99.90;;;;;;6297469;22;20068;-87
2023/01/08 05:16:19;;;;;;;7.45;2.47;;;7.80;99.90;;;;;;6248954;22;20556;-87
2023/01/08 05:18:46;;;;;;;8.25;2.72;;;7.80;99.90;;;;;;6246626;22;20059;-87
2023/01/08 05:21:12;;;;;;;9.45;2.78;;;8.10;99.90;;;;;;6300227;22;20355;-87
2023/01/08 05:23:38;;;;;;;6.90;2.70;;;7.70;99.90;;;;;;6299569;22;20023;-87
2023/01/08 05:26:05;;;;;;;12.00;3.13;;;8.20;99.90;;;;;;6298086;22;20019;-87
2023/01/08 05:28:32;;;;;;;10.50;2.78;;;8.20;99.90;;;;;;6247694;22;20091;-87
2023/01/08 05:30:57;;;;;;;7.90;2.70;;;7.70;99.90;;;;;;6246597;22;20055;-87
2023/01/08 05:33:24;;;;;;;6.22;2.75;;;7.70;99.90;;;;;;6299725;22;20023;-87
2023/01/08 05:35:50;;;;;;;6.55;2.70;;;7.70;99.90;;;;;;6255909;22;20011;-87
2023/01/08 05:38:16;;;;;;;7.65;2.40;;;7.80;99.90;;;;;;6298981;22;20095;-87
2023/01/08 05:40:41;;;;;;;10.52;2.80;;;7.80;99.90;;;;;;6299534;22;20019;-87
2023/01/08 05:43:07;;;;;;;8.27;2.40;;;7.80;99.90;;;;;;6272582;22;20525;-87
2023/01/08 05:45:33;;;;;;;9.68;2.30;;;8.00;99.90;;;;;;6324334;22;20011;-87
2023/01/08 05:48:03;;;;;;;8.02;2.47;;;7.90;99.90;;;;;;6324726;22;20450;-87
2023/01/08 05:50:28;;;;;;;12.25;2.72;;;7.90;99.90;;;;;;6273826;22;20015;-87
2023/01/08 05:52:54;;;;;;;9.88;2.20;;;7.90;99.90;;;;;;6272694;22;20081;-87
2023/01/08 05:55:20;;;;;;;7.45;2.10;;;7.80;99.90;;;;;;6325248;22;20076;-87
2023/01/08 05:57:45;;;;;;;6.80;2.33;;;8.30;99.90;;;;;;6324484;22;20101;-87
2023/01/08 06:00:12;;;;;;;8.55;2.53;;;8.30;99.90;;;;;;6272330;22;20019;-87
2023/01/08 06:02:37;;;;;;;8.80;1.90;;;7.90;99.90;;;;;;6325706;22;20354;-87
2023/01/08 06:05:06;;;;;;;6.65;2.00;;;7.90;99.90;;;;;;6273378;22;20023;-87
2023/01/08 06:07:32;;;;;;;7.60;1.95;;;7.80;99.90;;;;;;6324755;22;20015;-87
2023/01/08 06:09:58;;;;;;;9.20;2.10;;;7.90;99.90;;;;;;6272920;22;20469;-88
2023/01/08 06:12:23;;;;;;;8.73;2.20;;;7.80;99.90;;;;;;6272889;22;20011;-87
2023/01/08 06:14:49;;;;;;;10.23;2.03;;;8.30;99.90;;;;;;6271401;22;20015;-87
2023/01/08 06:17:16;;;;;;;8.40;1.75;;;7.80;99.90;;;;;;6325133;22;20022;-87
2023/01/08 06:19:41;;;;;;;7.85;1.58;;;7.80;99.90;;;;;;6273337;22;20447;-87
2023/01/08 06:22:07;;;;;;;4.78;1.40;;;7.80;99.90;;;;;;6272177;22;20141;-87
2023/01/08 06:24:33;;;;;;;8.25;2.63;;;8.20;99.90;;;;;;6273364;22;20035;-87
2023/01/08 06:26:58;;;;;;;10.55;2.50;;;8.20;99.90;;;;;;6323782;22;20351;-87
2023/01/08 06:29:24;;;;;;;6.68;2.20;;;7.80;99.90;;;;;;6323841;22;20015;-87
2023/01/08 06:31:49;;;;;;;7.40;1.90;;;7.80;99.90;;;;;;6324700;22;20073;-86
2023/01/08 06:34:15;;;;;;;7.68;1.80;;;7.80;99.90;;;;;;6324833;22;20019;-87
2023/01/08 06:36:41;;;;;;;5.68;1.70;;;8.00;99.90;;;;;;6273122;22;20019;-87
2023/01/08 06:39:07;;;;;;;7.78;1.90;;;8.00;99.90;;;;;;6273324;22;20022;-86
2023/01/08 06:41:33;;;;;;;6.60;1.60;;;8.00;99.90;;;;;;6324743;22;20056;-86
2023/01/08 06:43:59;;;;;;;9.55;1.85;;;8.10;99.90;;;;;;6271600;22;20094;-86
2023/01/08 06:46:24;;;;;;;8.35;1.92;;;8.30;99.90;;;;;;6326051;22;20104;-87
2023/01/08 06:48:50;;;;;;;6.10;2.10;;;8.10;99.90;;;;;;6271352;22;20405;-87
2023/01/08 06:51:16;;;;;;;9.05;2.38;;;8.00;99.90;;;;;;6274502;22;20484;-87
2023/01/08 06:53:41;;;;;;;7.05;2.70;;;8.00;99.90;;;;;;6324851;22;20397;-86
2023/01/08 06:56:09;;;;;;;9.65;2.55;;;8.30;99.90;;;;;;6323993;22;20047;-87
2023/01/08 06:58:36;;;;;;;6.65;2.35;;;8.00;99.90;;;;;;6324314;22;20027;-86
2023/01/08 07:01:02;;;;;;;10.70;2.90;;;7.90;99.90;;;;;;6298243;22;20411;-86
2023/01/08 07:03:28;;;;;;;5.90;2.17;;;7.90;99.90;;;;;;6298219;22;20050;-86
2023/01/08 07:05:55;;;;;;;5.05;2.42;;;7.80;99.90;;;;;;6324458;22;20007;-87
2023/01/08 07:08:21;;;;;;;5.38;2.38;;;7.70;99.90;;;;;;6299903;22;20383;-86
2023/01/08 07:10:46;;;;;;;6.70;2.50;;;7.70;99.90;;;;;;6323890;22;20084;-86
2023/01/08 07:13:12;;;;;;;5.72;2.45;;;7.70;99.90;;;;;;6298386;22;20086;-86
2023/01/08 07:15:39;;;;;;;10.05;2.50;;;7.70;99.90;;;;;;6273157;22;20023;-87
2023/01/08 07:18:05;;;;;;;10.85;2.45;;;7.70;99.90;;;;;;6271811;22;20007;-87
2023/01/08 07:20:32;;;;;;;11.77;3.50;;;7.90;99.90;;;;;;6299248;22;20030;-87
2023/01/08 07:23:02;;;;;;;7.57;2.85;;;7.70;99.90;;;;;;6298499;22;20090;-86
2023/01/08 07:25:28;;;;;;;7.75;2.90;;;7.70;99.90;;;;;;6325002;22;20087;-87
2023/01/08 07:27:54;;;;;;;12.50;2.92;;;7.70;99.90;;;;;;6272149;22;20093;-87
2023/01/08 07:30:19;;;;;;;10.85;3.03;;;7.60;99.90;;;;;;6272543;22;20019;-87
2023/01/08 07:32:45;;;;;;;11.15;2.90;;;7.60;99.90;;;;;;6298097;22;20126;-86
2023/01/08 07:35:11;;;;;;;8.70;2.65;;;7.90;99.90;;;;;;6272632;22;20172;-87
2023/01/08 07:37:41;;;;;;;8.80;2.65;;;7.50;99.90;;;;;;6324844;22;20019;-88
2023/01/08 07:40:08;;;;;;;15.82;3.13;;;7.40;99.90;;;;;;6273980;22;20011;-87
2023/01/08 07:42:33;;;;;;;9.63;2.92;;;7.40;99.90;;;;;;6326524;22;20023;-87
2023/01/08 07:44:59;;;;;;;8.50;2.97;;;7.40;99.90;;;;;;6273033;22;20447;-87
2023/01/08 07:47:25;;;;;;;9.68;2.75;;;7.40;99.90;;;;;;6274608;22;20019;-87
2023/01/08 07:49:51;;;;;;;7.43;2.35;;;7.70;99.90;;;;;;6274346;22;20108;-87
2023/01/08 07:52:16;;;;;;;11.95;2.80;;;7.40;99.90;;;;;;6273959;22;20080;-87
2023/01/08 07:54:42;;;;;;;8.52;2.38;;;7.20;99.90;;;;;;6326522;22;20120;-86
2023/01/08 07:57:08;;;;;;;11.85;2.10;;;7.30;99.90;;;;;;6325972;22;20484;-87
2023/01/08 07:59:33;;;;;;;9.10;2.55;;;7.40;99.90;;;;;;6273574;22;20030;-87
2023/01/08 08:01:59;;;;;;;8.80;2.30;;;7.30;99.90;;;;;;6273998;22;20023;-87
2023/01/08 08:04:25;;;;;;;7.90;2.22;;;7.40;99.90;;;;;;6325769;22;20019;-87
2023/01/08 08:06:51;;;;;;;9.80;2.25;;;7.90;99.90;;;;;;6273005;22;20095;-87
2023/01/08 08:09:16;;;;;;;8.00;2.50;;;7.30;99.90;;;;;;6274927;22;20007;-87
2023/01/08 08:11:42;;;;;;;10.35;2.38;;;7.30;99.90;;;;;;6274178;22;20156;-87
2023/01/08 08:14:08;;;;;;;10.63;2.90;;;7.20;99.90;;;;;;6272617;22;20026;-87
2023/01/08 08:16:33;;;;;;;11.55;3.22;;;7.20;99.90;;;;;;6326254;22;20015;-87
2023/01/08 08:18:59;;;;;;;9.48;3.17;;;7.10;99.90;;;;;;6325650;22;20011;-87
2023/01/08 08:21:28;;;;;;;10.10;2.72;;;7.70;99.90;;;;;;6326263;22;20023;-88
2023/01/08 08:23:54;;;;;;;12.93;3.60;;;7.10;99.90;;;;;;6299088;22;20042;-87
2023/01/08 08:26:20;;;;;;;10.32;3.15;;;7.10;99.90;;;;;;6300289;22;20018;-86
2023/01/08 08:28:46;;;;;;;8.90;2.67;;;7.00;99.90;;;;;;6323772;22;20086;-87
2023/01/08 08:31:12;;;;;;;9.68;3.10;;;7.00;99.90;;;;;;6274311;22;20145;-87
2023/01/08 08:33:38;;;;;;;11.95;3.15;;;7.00;99.90;;;;;;6273727;22;20219;-87
2023/01/08 08:36:04;;;;;;;7.88;2.80;;;7.00;99.90;;;;;;6193190;22;20017;-88
2023/01/08 08:38:30;;;;;;;9.07;2.55;;;7.00;99.90;;;;;;6124015;23;20452;-86
2023/01/08 08:40:55;;;;;;;10.23;2.92;;;7.00;99.90;;;;;;6171387;23;20051;-88
2023/01/08 08:43:21;;;;;;;9.48;2.40;;;7.00;99.90;;;;;;6173384;23;20025;-88
2023/01/08 08:45:47;;;;;;;9.95;2.55;;;7.00;99.90;;;;;;6122829;23;20344;-87
2023/01/08 08:48:12;;;;;;;7.20;2.20;;;7.10;99.90;;;;;;6123150;23;20025;-87
2023/01/08 08:50:38;;;;;;;12.25;2.72;;;7.70;99.90;;;;;;6123415;23;20020;-88
2023/01/08 08:53:05;;;;;;;9.95;2.50;;;7.00;99.90;;;;;;6172266;23;20025;-87
2023/01/08 08:55:32;;;;;;;9.55;2.28;;;7.00;99.90;;;;;;6172647;22;20021;-88
2023/01/08 08:58:04;;;;;;;14.25;2.15;;;7.00;99.90;;;;;;6147022;23;20344;-86
2023/01/08 09:00:30;;;;;;;12.05;2.15;;;7.10;99.90;;;;;;6123325;23;20101;-88
2023/01/08 09:02:56;;;;;;;13.75;2.40;;;7.10;99.90;;;;;;6171498;22;20052;-88
2023/01/08 09:05:21;;;;;;;12.48;2.38;;;7.10;99.90;;;;;;6149012;22;20025;-89
2023/01/08 09:07:47;;;;;;;14.25;2.35;;;7.10;99.90;;;;;;6123976;23;20456;-87
2023/01/08 09:10:13;;;;;;;11.45;2.40;;;7.40;99.90;;;;;;6123218;23;20017;-88
2023/01/08 09:13:00;;;;;;;15.77;2.38;;;7.20;99.90;;;;;;6124394;23;20429;-89
2023/01/08 09:15:29;;;;;;;12.15;2.33;;;7.10;99.90;;;;;;6124004;23;20066;-88
2023/01/08 09:17:55;;;;;;;14.05;2.53;;;7.20;99.90;;;;;;6171713;23;20431;-89
2023/01/08 09:20:25;;;;;;;11.40;2.17;;;7.20;99.90;;;;;;6124323;23;20017;-88
2023/01/08 09:22:53;;;;;;;13.85;2.30;;;7.50;99.90;;;;;;6123606;23;20021;-89
2023/01/08 09:25:19;;;;;;;8.90;2.13;;;7.20;99.90;;;;;;6148873;23;20594;-87
2023/01/08 09:27:45;;;;;;;10.88;2.03;;;7.30;99.90;;;;;;6122821;23;20026;-88
2023/01/08 09:30:11;;;;;;;11.85;2.13;;;7.30;99.90;;;;;;6123740;23;20013;-88
2023/01/08 09:32:37;;;;;;;14.48;2.17;;;7.30;99.90;;;;;;6124540;23;20039;-88
2023/01/08 09:35:04;;;;;;;13.45;2.60;;;7.80;99.90;;;;;;6138346;22;20420;-89
2023/01/08 09:37:30;;;;;;;9.60;2.33;;;7.40;99.90;;;;;;6247773;22;20351;-88
2023/01/08 09:39:55;;;;;;;12.52;3.22;;;7.40;99.90;;;;;;6298330;22;20395;-87
2023/01/08 09:42:26;;;;;;;10.35;1.85;;;8.10;99.90;;;;;;6299320;22;20419;-87
2023/01/08 09:44:56;;;;;;;18.88;1.90;;;7.50;99.90;;;;;;6296947;22;20019;-88
2023/01/08 09:47:30;;;;;;;10.93;1.90;;;7.50;99.90;;;;;;6300590;22;20030;-88
2023/01/08 09:50:01;;;;;;;13.02;2.15;;;7.60;99.90;;;;;;6298777;22;20019;-88
2023/01/08 09:52:31;;;;;;;11.57;2.10;;;7.70;99.90;;;;;;6299378;22;20019;-88
2023/01/08 09:55:53;;;;;;;11.25;2.00;;;7.70;99.90;;;;;;6248310;22;20050;-89
2023/01/08 09:58:45;;;;;;;15.68;1.90;;;7.70;99.90;;;;;;6272064;22;20027;-89
2023/01/08 10:01:18;;;;;;;10.23;1.92;;;7.70;99.90;;;;;;6249737;22;20053;-89
2023/01/08 10:03:54;;;;;;;12.98;2.85;;;7.70;99.90;;;;;;6248147;22;20025;-88
2023/01/08 10:06:22;;;;;;;12.32;2.30;;;7.80;99.90;;;;;;6273536;22;20016;-88
2023/01/08 10:08:49;;;;;;;10.95;1.50;;;8.40;99.90;;;;;;6248003;22;20023;-88
2023/01/08 10:11:15;;;;;;;9.35;1.65;;;7.80;99.90;;;;;;6248937;22;20037;-88
2023/01/08 10:13:46;;;;;;;12.43;2.28;;;7.90;99.90;;;;;;6246712;22;20015;-89
2023/01/08 10:16:25;;;;;;;12.48;2.13;;;8.00;99.90;;;;;;6250132;22;20382;-88
2023/01/08 10:19:59;;;;;;;14.05;1.75;;;8.00;99.90;;;;;;6248376;22;20098;-88
2023/01/08 10:22:53;;;;;;;11.70;1.77;;;7.90;99.90;;;;;;6294299;22;20062;-89
2023/01/08 10:26:16;;;;;;;13.48;1.90;;;8.00;99.90;;;;;;6245648;22;20015;-89
2023/01/08 10:29:18;;;;;;;14.35;2.33;;;8.00;99.90;;;;;;6244234;22;20076;-88
2023/01/08 10:31:57;;;;;;;10.63;2.25;;;8.00;99.90;;;;;;6299148;22;20350;-88
2023/01/08 10:35:02;;;;;;;11.40;1.90;;;8.10;99.90;;;;;;6298443;22;20019;-87
2023/01/08 10:37:49;;;;;;;14.10;2.15;;;8.10;99.90;;;;;;6152220;23;20093;-88
2023/01/08 10:40:34;;;;;;;13.73;2.00;;;8.20;99.90;;;;;;6172267;23;20078;-88
2023/01/08 10:43:18;;;;;;;11.77;1.83;;;8.20;99.90;;;;;;6172284;22;20017;-88
2023/01/08 10:46:30;;;;;;;15.82;1.95;;;8.20;99.90;;;;;;6124157;23;20021;-89
2023/01/08 10:49:40;;;;;;;12.30;2.40;;;8.20;99.90;;;;;;6172094;23;20024;-89
2023/01/08 10:51:52;;;;;;;14.02;2.10;;;8.30;99.90;;;;;;6134714;23;20025;-88
2023/01/08 10:55:42;;;;;;;;;;;;;;;;;;;;;
2023/01/08 10:58:03;;;;;;;12.57;2.25;;;8.30;99.90;;;;;;6175824;23;20025;-88
2023/01/08 11:00:35;;;;;;;11.98;2.30;;;8.30;99.90;;;;;;6172627;22;20021;-88
2023/01/08 11:03:04;;;;;;;11.98;1.98;;;8.50;99.90;;;;;;6171924;22;20553;-89
2023/01/08 11:05:41;;;;;;;16.70;1.88;;;8.40;99.90;;;;;;6173249;22;20403;-89
2023/01/08 11:08:15;;;;;;;12.18;2.17;;;8.40;99.90;;;;;;6172373;23;20067;-86
2023/01/08 11:10:41;;;;;;;15.90;2.33;;;8.50;99.90;;;;;;6171533;22;20017;-87
2023/01/08 11:13:15;;;;;;;11.73;2.17;;;8.60;99.90;;;;;;6121916;23;20478;-88
2023/01/08 11:15:42;;;;;;;9.93;2.30;;;9.00;99.90;;;;;;6198409;22;20009;-88
2023/01/08 11:18:19;;;;;;;11.93;1.92;;;8.50;99.90;;;;;;6173414;23;20021;-85
2023/01/08 11:27:49;;;;;;;19.98;3.83;;;8.50;99.90;;;;;;6258200;22;20055;-94
2023/01/08 13:56:21;;;;;;;15.85;2.58;;;8.60;99.90;;;;;;6218553;22;20050;-89
2023/01/08 14:06:07;;;;;;;10.90;1.75;;;8.50;99.90;;;;;;6273965;22;20019;-90
2023/01/08 14:08:33;;;;;;;10.75;1.70;;;8.80;99.90;;;;;;6243857;22;20038;-90
2023/01/08 14:10:59;;;;;;;16.73;2.42;;;8.80;99.90;;;;;;6223021;23;20054;-91
2023/01/08 14:13:34;;;;;;;14.95;2.78;;;8.80;99.90;;;;;;6316829;22;20690;-92
2023/01/08 14:16:04;;;;;;;12.38;2.00;;;8.70;99.90;;;;;;6318290;22;20017;-91
2023/01/08 14:18:31;;;;;;;16.98;1.77;;;8.70;99.90;;;;;;6318214;22;20020;-94
2023/01/08 15:00:00;;;;;;;12.18;2.15;;;8.30;99.90;;;;;;6268968;22;20022;-83
2023/01/08 15:02:30;;;;;;;11.20;1.55;;;8.10;99.90;;;;;;6238178;22;20516;-88
2023/01/08 15:05:04;;;;;;;7.57;1.60;;;8.40;99.90;;;;;;6214277;22;20059;-89
2023/01/08 15:07:54;;;;;;;11.30;1.60;;;8.10;99.90;;;;;;6216095;22;20046;-91
2023/01/08 15:10:33;;;;;;;10.07;1.85;;;8.00;99.90;;;;;;6215095;22;20087;-88
2023/01/08 15:12:59;;;;;;;9.00;1.55;;;7.90;99.90;;;;;;6238783;22;20015;-87
2023/01/08 15:15:26;;;;;;;11.02;2.08;;;7.90;99.90;;;;;;6238321;22;20340;-88
2023/01/08 15:17:53;;;;;;;8.65;1.70;;;7.80;99.90;;;;;;6212870;22;20015;-90
2023/01/08 15:20:35;;;;;;;10.23;2.00;;;7.80;99.90;;;;;;6240119;22;20084;-89
2023/01/08 15:23:01;;;;;;;11.43;2.22;;;7.70;99.90;;;;;;6213675;22;20027;-89
2023/01/08 15:25:28;;;;;;;7.93;1.65;;;7.70;99.90;;;;;;6215096;22;20049;-89
2023/01/08 15:28:06;;;;;;;13.57;2.17;;;7.70;99.90;;;;;;6239197;22;20016;-89
2023/01/08 15:30:45;;;;;;;8.35;1.83;;;7.70;99.90;;;;;;6213937;22;20061;-87
2023/01/08 15:33:19;;;;;;;8.05;1.65;;;8.20;99.90;;;;;;6239768;22;20015;-89
2023/01/08 15:36:04;;;;;;;10.27;1.42;;;7.50;99.90;;;;;;6214418;22;20427;-89
2023/01/08 15:38:29;;;;;;;14.10;2.72;;;7.40;99.90;;;;;;6216533;22;20020;-89
2023/01/08 15:41:01;;;;;;;8.68;1.80;;;7.30;99.90;;;;;;6215359;22;20068;-89
2023/01/08 15:43:26;;;;;;;7.18;1.50;;;7.60;99.90;;;;;;6213578;22;20031;-89
2023/01/08 15:45:52;;;;;;;6.28;1.33;;;7.30;99.90;;;;;;6213489;22;20012;-89
2023/01/08 15:48:18;;;;;;;6.43;2.15;;;7.20;99.90;;;;;;6213642;22;20339;-87
2023/01/08 15:50:46;;;;;;;8.50;1.38;;;7.20;99.90;;;;;;6211388;22;20359;-88
2023/01/08 15:53:17;;;;;;;6.38;1.30;;;7.20;99.90;;;;;;6213323;22;20436;-89
2023/01/08 15:55:44;;;;;;;5.03;1.20;;;7.10;99.90;;;;;;6214122;22;20022;-89
2023/01/08 15:58:57;;;;;;;4.85;1.30;;;7.10;99.90;;;;;;6212106;22;20079;-90
2023/01/08 16:01:44;;;;;;;6.07;1.30;;;7.00;99.90;;;;;;6228544;22;20027;-89
2023/01/08 16:04:18;;;;;;;5.00;1.20;;;6.90;99.90;;;;;;6214480;22;20038;-89
2023/01/08 16:06:43;;;;;;;6.68;1.60;;;7.30;99.90;;;;;;6214584;22;20076;-89
2023/01/08 16:09:09;;;;;;;6.95;1.50;;;6.90;99.90;;;;;;6239907;22;20015;-88
2023/01/08 16:11:38;;;;;;;6.75;1.40;;;6.70;99.90;;;;;;6217526;22;20098;-89
2023/01/08 16:14:03;;;;;;;3.80;1.25;;;6.80;99.90;;;;;;6215091;22;20471;-89
2023/01/08 16:16:29;;;;;;;4.65;1.38;;;6.80;99.90;;;;;;6214431;22;20016;-89
2023/01/08 16:18:55;;;;;;;6.88;1.75;;;6.80;99.90;;;;;;6212822;22;20019;-89
2023/01/08 16:21:21;;;;;;;11.48;5.25;;;7.40;99.90;;;;;;6215610;22;20015;-90
2023/01/08 16:23:46;;;;;;;5.00;2.00;;;6.80;99.90;;;;;;6214494;22;20026;-89
2023/01/08 16:26:13;;;;;;;10.50;5.97;;;6.70;99.90;;;;;;6215495;22;20023;-90